Terminal Aerodrome Forecast
Issued by NWS

Home | Current Version | Previous Version | Graphics & Text | Print | Product List | Glossary On
Versions: 1 2 3 4 5 6 7 8 9 10 11 12 13 14
000
FTUS43 KUNR 020034 AAA
TAFGCC
TAF AMD
KGCC 020034Z 0201/0224 07008KT P6SM SCT090
     FM020200 36009KT P6SM VCTS SCT080CB BKN250
     FM020400 34005KT P6SM BKN080
     FM021500 33015KT P6SM BKN060=

USA.gov is the U.S. government's official web portal to all federal, state and local government web resources and services.